Terminal Aerodrome Forecast
Issued by NWS Bismarck, ND

Home | Current Version | Previous Version | Graphics & Text | Print | Product List | Glossary On
Versions: 1 2 3 4 5 6 7 8 9 10 11 12 13 14 15 16 17
000
FTUS43 KBIS 202300
TAFBIS
TAF
KBIS 202324Z 2100/2124 03005KT P6SM -TSRA SCT050CB BKN100
      TEMPO 2101/2102 VRB20G40KT 2SM TSRA BKN025 BKN060CB
     FM210400 VRB03KT P6SM BKN060
     FM211600 31005KT P6SM SCT080
     FM211900 33007KT P6SM SCT050=

USA.gov is the U.S. government's official web portal to all federal, state and local government web resources and services.